Terminal Aerodrome Forecast
Issued by NWS

Home | Current Version | Previous Version | Text Only | Print | Product List | Glossary On
Versions: 1 2 3 4 5 6 7 8 9 10 11 12 13 14 15 16 17 18 19 20 21
000
FTUS42 KTBW 171739
TAFPGD
TAF
KPGD 171739Z 1718/1818 14009KT P6SM SCT040 BKN250
     FM172000 21008KT P6SM BKN050
     FM180000 VRB03KT P6SM SCT060 SCT250
     FM180800 VRB03KT 3SM BR SCT005 SCT050
     FM181400 15005KT P6SM SCT030 SCT250
     FM181700 21007KT P6SM SCT040 SCT250=

USA.gov is the U.S. government's official web portal to all federal, state and local government web resources and services.